Time;durP1;ratioP1;P1;durP2;ratioP2;P2;SDS_P1;SDS_P2;PMS_P1;PMS_P2;Temp;Humidity;BMP_temperature;BMP_pressure;BME280_temperature;BME280_humidity;BME280_pressure;Samples;Min_cycle;Max_cycle;Signal;HPM_P1;HPM_P2
2023/08/31 00:00:10;;;;;;;9.75;4.07;;;;;;;18.62;79.49;98432.19;4892399;29;19980;-80
2023/08/31 00:02:54;;;;;;;10.27;3.80;;;;;;;18.31;80.60;98419.63;4888465;29;20094;-80
2023/08/31 00:05:42;;;;;;;11.93;4.07;;;;;;;18.43;80.13;98422.06;4890638;29;20052;-80
2023/08/31 00:08:26;;;;;;;10.18;4.40;;;;;;;18.33;80.45;98420.16;4888992;29;20173;-79
2023/08/31 00:11:10;;;;;;;7.80;4.28;;;;;;;18.62;79.47;98414.38;4887943;29;20519;-79
2023/08/31 00:13:54;;;;;;;12.13;4.95;;;;;;;18.70;79.38;98413.06;4887856;29;20079;-79
2023/08/31 00:16:38;;;;;;;8.70;4.40;;;;;;;18.69;79.61;98420.25;4886995;29;20104;-80
2023/08/31 00:19:22;;;;;;;9.98;5.10;;;;;;;18.66;79.51;98414.66;4887041;29;20044;-79
2023/08/31 00:22:06;;;;;;;9.82;3.70;;;;;;;18.52;80.21;98409.06;4890963;29;20110;-80
2023/08/31 00:24:51;;;;;;;14.05;4.97;;;;;;;18.37;80.65;98410.59;4891372;29;20047;-79
2023/08/31 00:27:37;;;;;;;10.30;4.35;;;;;;;18.61;80.11;98402.16;4888346;29;20062;-79
2023/08/31 00:30:20;;;;;;;10.13;4.25;;;;;;;18.51;80.52;98396.84;4888442;29;20051;-79
2023/08/31 00:33:04;;;;;;;10.32;4.00;;;;;;;18.47;80.21;98395.75;4887470;29;20079;-79
2023/08/31 00:35:48;;;;;;;9.15;4.60;;;;;;;18.37;80.87;98396.50;4887126;29;20051;-80
2023/08/31 00:38:32;;;;;;;7.97;3.83;;;;;;;18.39;80.81;98399.72;4887115;29;20039;-80
2023/08/31 00:41:16;;;;;;;8.73;4.15;;;;;;;18.15;81.98;98399.38;4889643;29;20088;-79
2023/08/31 00:44:00;;;;;;;11.10;3.90;;;;;;;18.35;81.59;98391.47;4886576;29;20044;-80
2023/08/31 00:46:45;;;;;;;8.13;4.50;;;;;;;18.39;81.57;98397.84;4888678;29;20092;-79
2023/08/31 00:49:29;;;;;;;13.98;4.53;;;;;;;18.35;81.70;98383.50;4886729;29;20571;-79
2023/08/31 00:52:13;;;;;;;9.90;3.80;;;;;;;18.12;82.18;98388.22;4887234;29;20484;-79
2023/08/31 00:54:57;;;;;;;10.45;4.63;;;;;;;18.38;81.94;98387.50;4885798;29;20044;-79
2023/08/31 00:57:42;;;;;;;11.45;4.55;;;;;;;18.24;82.30;98379.22;4884152;29;20043;-79
2023/08/31 01:00:40;;;;;;;10.77;4.78;;;;;;;18.29;82.34;98379.25;4889131;29;20452;-80
2023/08/31 01:03:37;;;;;;;10.32;4.47;;;;;;;18.29;82.11;98384.56;4883476;29;20411;-79
2023/08/31 01:06:35;;;;;;;8.10;4.03;;;;;;;18.29;82.40;98387.22;4887759;29;20128;-80
2023/08/31 01:09:53;;;;;;;11.57;4.20;;;;;;;18.26;82.57;98379.75;4886732;29;20093;-79
2023/08/31 01:12:47;;;;;;;10.45;4.28;;;;;;;18.40;82.17;98396.78;4885786;29;20043;-79
2023/08/31 01:15:32;;;;;;;;;;;;;;;18.35;82.30;98394.13;4888373;29;20048;-79
2023/08/31 01:18:20;;;;;;;10.65;4.05;;;;;;;18.37;82.48;98397.31;4884602;29;20278;-79
2023/08/31 01:21:32;;;;;;;11.70;4.25;;;;;;;18.33;82.70;98401.56;4884937;29;20080;-79
2023/08/31 01:24:17;;;;;;;11.93;4.15;;;;;;;18.09;83.11;98393.25;4883125;29;20047;-80
2023/08/31 01:27:01;;;;;;;9.48;4.13;;;;;;;18.32;82.73;98389.34;4885613;29;20059;-79
2023/08/31 01:29:45;;;;;;;9.40;4.30;;;;;;;18.31;82.51;98395.72;4882402;29;20503;-79
2023/08/31 01:32:31;;;;;;;10.07;4.82;;;;;;;18.36;82.40;98390.41;4886793;29;20117;-79
2023/08/31 01:35:18;;;;;;;8.20;4.40;;;;;;;18.32;82.42;98383.22;4882853;29;20037;-79
2023/08/31 01:38:04;;;;;;;11.05;4.32;;;;;;;18.26;82.78;98396.50;4885169;29;20169;-79
2023/08/31 01:40:56;;;;;;;8.27;3.95;;;;;;;18.25;82.78;98381.63;4886569;29;20048;-79
2023/08/31 01:43:41;;;;;;;16.13;5.15;;;;;;;18.24;83.00;98388.00;4889651;29;20047;-80
2023/08/31 01:46:26;;;;;;;10.70;4.90;;;;;;;18.26;83.39;98390.38;4889647;29;20547;-80
2023/08/31 01:49:10;;;;;;;7.32;3.70;;;;;;;18.29;83.10;98392.53;4888414;29;20060;-79
2023/08/31 01:51:54;;;;;;;7.00;4.03;;;;;;;18.11;83.89;98397.25;4890687;29;20054;-79
2023/08/31 01:54:38;;;;;;;12.55;4.35;;;;;;;18.21;83.70;98399.16;4886318;29;20103;-79
2023/08/31 01:57:22;;;;;;;10.88;4.93;;;;;;;18.24;83.40;98392.50;4888879;29;20051;-79
2023/08/31 02:00:07;;;;;;;12.77;4.35;;;;;;;18.32;83.16;98393.84;4891780;29;20092;-79
2023/08/31 02:02:51;;;;;;;12.27;4.10;;;;;;;18.24;83.28;98398.63;4888741;29;20051;-79
2023/08/31 02:05:36;;;;;;;10.02;4.15;;;;;;;18.31;83.15;98403.69;4893555;29;20403;-79
2023/08/31 02:08:19;;;;;;;7.55;3.97;;;;;;;18.33;83.05;98412.19;4887360;29;20052;-79
2023/08/31 02:11:04;;;;;;;8.68;4.13;;;;;;;18.31;83.26;98397.56;4888199;29;20471;-79
2023/08/31 02:13:47;;;;;;;9.02;3.65;;;;;;;18.24;83.27;98397.81;4890922;29;20048;-80
2023/08/31 02:16:31;;;;;;;9.07;3.85;;;;;;;18.14;82.92;98390.59;4888935;29;20116;-79
2023/08/31 02:19:15;;;;;;;10.57;3.63;;;;;;;18.03;83.69;98403.03;4887616;29;20068;-79
2023/08/31 02:21:59;;;;;;;9.52;4.03;;;;;;;17.87;83.88;98388.88;4890310;29;20136;-79
2023/08/31 02:24:44;;;;;;;9.10;3.83;;;;;;;18.01;83.80;98396.38;4886289;29;20623;-80
2023/08/31 02:27:28;;;;;;;9.55;3.95;;;;;;;17.88;84.06;98387.00;4890003;29;20048;-79
2023/08/31 02:30:12;;;;;;;9.38;3.63;;;;;;;17.99;83.85;98380.69;4887243;29;20044;-79
2023/08/31 02:32:56;;;;;;;7.20;4.07;;;;;;;18.04;83.75;98383.41;4889009;29;20067;-79
2023/08/31 02:35:40;;;;;;;;;;;;;;;17.98;83.57;98387.06;4891315;29;20120;-80
2023/08/31 02:38:24;;;;;;;11.32;4.22;;;;;;;17.96;83.34;98383.88;4885372;29;19922;-79
2023/08/31 02:41:08;;;;;;;15.48;4.30;;;;;;;17.87;83.57;98388.88;4889250;29;20048;-79
2023/08/31 02:43:52;;;;;;;8.45;3.78;;;;;;;17.97;83.13;98393.44;4886909;29;20095;-79
2023/08/31 02:46:36;;;;;;;7.70;3.70;;;;;;;17.76;83.77;98403.97;4889508;29;20465;-80
2023/08/31 02:49:21;;;;;;;8.25;4.55;;;;;;;17.81;83.74;98396.00;4885322;29;20590;-79
2023/08/31 02:52:04;;;;;;;;;;;;;;;17.77;83.55;98389.63;4891465;29;20051;-79
2023/08/31 02:54:48;;;;;;;8.63;3.70;;;;;;;17.77;83.43;98384.31;4887801;29;19926;-79
2023/08/31 02:57:32;;;;;;;8.50;3.72;;;;;;;17.54;83.90;98383.66;4882795;29;20089;-79
2023/08/31 03:00:17;;;;;;;8.85;3.20;;;;;;;17.85;82.75;98380.38;4887750;29;20444;-79
2023/08/31 03:03:01;;;;;;;8.73;3.17;;;;;;;17.75;82.70;98381.13;4885783;29;20133;-79
2023/08/31 03:05:45;;;;;;;7.97;3.47;;;;;;;17.88;82.27;98379.03;4889968;29;20099;-80
2023/08/31 03:08:29;;;;;;;7.35;3.15;;;;;;;17.94;82.22;98384.13;4889059;29;20043;-79
2023/08/31 03:11:16;;;;;;;9.50;3.08;;;;;;;18.03;81.70;98381.78;4890869;29;20048;-79
2023/08/31 03:14:00;;;;;;;9.20;2.75;;;;;;;17.92;82.02;98374.84;4887982;29;20486;-79
2023/08/31 03:16:44;;;;;;;7.78;3.17;;;;;;;17.83;82.28;98363.91;4887010;29;20120;-80
2023/08/31 03:19:27;;;;;;;;;;;;;;;17.90;82.07;98369.00;4888973;29;20051;-79
2023/08/31 03:22:11;;;;;;;5.13;3.15;;;;;;;17.77;81.92;98360.44;4890037;29;19955;-79
2023/08/31 03:24:55;;;;;;;5.75;2.90;;;;;;;17.81;81.73;98356.19;4887675;29;20063;-79
2023/08/31 03:27:39;;;;;;;5.45;2.72;;;;;;;17.68;81.89;98364.63;4886824;29;20339;-79
2023/08/31 03:30:23;;;;;;;4.35;2.30;;;;;;;17.82;81.38;98360.44;4888618;29;20096;-78
2023/08/31 03:33:08;;;;;;;8.02;2.70;;;;;;;17.77;81.38;98351.66;4890273;29;20051;-80
2023/08/31 03:35:52;;;;;;;5.35;2.70;;;;;;;17.80;81.03;98357.25;4886913;29;20116;-79
2023/08/31 03:38:40;;;;;;;6.50;2.38;;;;;;;17.80;81.09;98359.91;4886597;29;20075;-79
2023/08/31 03:41:24;;;;;;;6.35;3.05;;;;;;;17.80;80.88;98359.91;4886193;29;21864;-79
2023/08/31 03:44:09;;;;;;;5.03;2.60;;;;;;;17.91;79.73;98350.13;4886840;29;20497;-80
2023/08/31 03:46:53;;;;;;;7.93;2.70;;;;;;;17.83;79.68;98332.84;4885106;29;20509;-79
2023/08/31 03:49:37;;;;;;;7.10;2.60;;;;;;;17.93;79.21;98349.88;4888485;29;20039;-79
2023/08/31 03:52:21;;;;;;;5.03;2.45;;;;;;;17.88;79.25;98349.84;4888772;29;20551;-80
2023/08/31 03:55:05;;;;;;;6.15;2.38;;;;;;;17.73;79.16;98351.38;4887332;29;20542;-79
2023/08/31 03:57:49;;;;;;;5.72;2.42;;;;;;;17.50;79.40;98347.28;4886734;29;20047;-79
2023/08/31 04:00:33;;;;;;;4.50;2.47;;;;;;;17.54;79.31;98354.47;4887656;29;20115;-79
2023/08/31 04:03:17;;;;;;;3.03;2.25;;;;;;;17.51;79.38;98352.34;4885256;29;20051;-78
2023/08/31 04:06:02;;;;;;;4.38;2.53;;;;;;;17.35;79.65;98353.31;4883348;29;20100;-79
2023/08/31 04:08:46;;;;;;;6.00;2.90;;;;;;;17.46;79.68;98354.94;4887942;29;20048;-80
2023/08/31 04:11:30;;;;;;;4.45;2.70;;;;;;;17.54;79.64;98349.19;4887614;29;20089;-80
2023/08/31 04:14:14;;;;;;;5.07;2.78;;;;;;;17.73;79.39;98356.69;4888256;29;20051;-79
2023/08/31 04:16:58;;;;;;;6.40;2.72;;;;;;;17.80;79.45;98364.44;4886650;29;20432;-79
2023/08/31 04:19:42;;;;;;;3.95;2.42;;;;;;;17.95;78.94;98369.00;4886656;29;20101;-80
2023/08/31 04:22:26;;;;;;;7.55;2.60;;;;;;;18.03;78.71;98365.88;4888366;29;20040;-80
2023/08/31 04:25:10;;;;;;;6.15;2.70;;;;;;;17.97;79.13;98365.00;4886874;29;20108;-79
2023/08/31 04:27:54;;;;;;;7.65;2.80;;;;;;;17.85;79.56;98359.91;4889615;29;20058;-79
2023/08/31 04:30:40;;;;;;;7.65;2.70;;;;;;;18.05;79.33;98366.41;4884693;29;20063;-79
2023/08/31 04:33:23;;;;;;;5.45;3.08;;;;;;;18.00;79.08;98366.34;4886973;29;20513;-79
2023/08/31 04:36:07;;;;;;;4.63;2.47;;;;;;;18.04;79.22;98370.13;4886430;29;20526;-80
2023/08/31 04:38:51;;;;;;;5.20;2.53;;;;;;;18.01;79.16;98372.47;4889155;29;20043;-79
2023/08/31 04:41:36;;;;;;;4.00;2.28;;;;;;;17.99;79.02;98370.88;4887468;29;20052;-79
2023/08/31 04:44:20;;;;;;;3.45;2.25;;;;;;;17.96;79.33;98376.69;4886381;29;20108;-79
2023/08/31 04:47:04;;;;;;;5.78;2.80;;;;;;;17.89;79.31;98370.03;4884279;29;20051;-79
2023/08/31 04:49:48;;;;;;;3.42;2.45;;;;;;;17.92;79.42;98380.94;4888884;29;20116;-79
2023/08/31 04:52:32;;;;;;;4.20;2.55;;;;;;;18.02;79.50;98384.72;4884957;29;20043;-79
2023/08/31 04:55:16;;;;;;;7.38;2.65;;;;;;;18.06;79.44;98383.94;4888369;29;20088;-79
2023/08/31 04:58:00;;;;;;;4.70;2.92;;;;;;;18.08;79.50;98395.13;4883964;29;20396;-79
2023/08/31 05:00:44;;;;;;;4.80;2.58;;;;;;;18.07;79.34;98382.88;4887264;29;20052;-79
2023/08/31 05:03:28;;;;;;;5.32;2.80;;;;;;;18.15;79.16;98392.19;4889800;29;20518;-79
2023/08/31 05:06:12;;;;;;;6.47;2.00;;;;;;;18.23;79.12;98396.22;4888654;29;20538;-79
2023/08/31 05:08:56;;;;;;;5.47;2.42;;;;;;;18.26;79.06;98395.69;4884544;29;20051;-79
2023/08/31 05:11:40;;;;;;;4.97;2.42;;;;;;;18.12;79.11;98390.06;4885851;29;20041;-79
2023/08/31 05:14:25;;;;;;;6.65;2.58;;;;;;;18.19;79.00;98401.25;4892026;29;20044;-80
2023/08/31 05:17:08;;;;;;;6.13;2.38;;;;;;;18.13;79.09;98400.44;4887935;29;20071;-79
2023/08/31 05:19:53;;;;;;;6.38;2.63;;;;;;;18.11;79.09;98394.59;4887440;29;20187;-79
2023/08/31 05:22:37;;;;;;;10.23;2.35;;;;;;;18.21;79.07;98398.31;4889347;29;20084;-79
2023/08/31 05:25:21;;;;;;;4.30;2.33;;;;;;;18.27;78.57;98402.59;4889685;29;20048;-79
2023/08/31 05:28:05;;;;;;;7.55;2.65;;;;;;;18.14;78.85;98393.25;4889642;29;20107;-79
2023/08/31 05:30:51;;;;;;;5.82;2.53;;;;;;;18.09;79.15;98396.72;4891007;29;20063;-79
2023/08/31 05:33:35;;;;;;;7.97;2.80;;;;;;;18.11;79.09;98394.59;4888089;29;20128;-79
2023/08/31 05:36:19;;;;;;;8.43;2.85;;;;;;;18.31;78.51;98395.72;4893523;29;20468;-80
2023/08/31 05:39:03;;;;;;;4.65;2.40;;;;;;;18.12;78.97;98396.19;4889410;29;20053;-80
2023/08/31 05:41:48;;;;;;;5.85;2.65;;;;;;;18.10;79.19;98393.00;4890371;29;20046;-79
2023/08/31 05:44:32;;;;;;;6.40;2.53;;;;;;;18.27;79.08;98398.09;4894765;29;20043;-80
2023/08/31 05:47:15;;;;;;;5.03;2.47;;;;;;;18.24;78.83;98400.47;4890827;29;20043;-79
2023/08/31 05:49:59;;;;;;;3.92;2.50;;;;;;;18.21;78.80;98398.31;4889395;29;20047;-79
2023/08/31 05:52:43;;;;;;;4.95;2.40;;;;;;;18.21;78.90;98401.78;4889281;29;20042;-79
2023/08/31 05:55:27;;;;;;;7.13;2.90;;;;;;;18.17;78.78;98403.34;4889933;29;20047;-79
2023/08/31 05:58:11;;;;;;;6.93;2.45;;;;;;;18.33;78.47;98406.88;4887540;29;20100;-80
2023/08/31 06:00:56;;;;;;;4.35;2.80;;;;;;;18.30;78.53;98407.41;4891583;29;20416;-79
2023/08/31 06:03:40;;;;;;;4.40;2.22;;;;;;;18.30;78.62;98398.63;4889545;29;20541;-80
2023/08/31 06:06:24;;;;;;;4.47;2.72;;;;;;;18.38;78.45;98400.78;4887659;29;20048;-79
2023/08/31 06:09:08;;;;;;;6.93;3.72;;;;;;;18.44;78.33;98404.22;4892452;29;20445;-79
2023/08/31 06:11:52;;;;;;;6.32;2.90;;;;;;;18.37;78.46;98399.97;4889298;29;20051;-79
2023/08/31 06:14:37;;;;;;;5.47;2.45;;;;;;;18.53;77.96;98400.03;4885431;29;20056;-79
2023/08/31 06:17:20;;;;;;;6.35;2.75;;;;;;;18.53;78.22;98410.66;4886373;29;20043;-80
2023/08/31 06:20:05;;;;;;;6.05;3.10;;;;;;;18.56;78.63;98408.25;4886121;29;20104;-80
2023/08/31 06:22:49;;;;;;;5.07;2.83;;;;;;;18.39;78.65;98400.50;4889485;29;20140;-79
2023/08/31 06:25:33;;;;;;;4.53;2.53;;;;;;;18.36;79.19;98406.34;4888120;29;20077;-79
2023/08/31 06:28:17;;;;;;;6.10;2.45;;;;;;;18.38;79.20;98412.19;4890241;29;20451;-79
2023/08/31 06:31:02;;;;;;;3.22;2.42;;;;;;;18.46;79.30;98410.09;4887012;29;20104;-79
2023/08/31 06:33:46;;;;;;;8.93;2.85;;;;;;;18.45;79.56;98411.16;4889613;29;20055;-80
2023/08/31 06:36:30;;;;;;;5.22;2.80;;;;;;;18.52;79.38;98409.06;4889882;29;20101;-81
2023/08/31 06:39:15;;;;;;;5.78;2.92;;;;;;;18.65;79.29;98413.84;4891935;29;20060;-80
2023/08/31 06:41:59;;;;;;;3.33;2.40;;;;;;;18.79;79.15;98408.03;4888290;29;20040;-80
2023/08/31 06:44:43;;;;;;;5.20;2.92;;;;;;;18.87;79.07;98412.84;4885387;29;20051;-80
2023/08/31 06:47:28;;;;;;;7.80;2.75;;;;;;;19.11;78.77;98404.38;4893709;29;20399;-80
2023/08/31 06:50:12;;;;;;;3.45;2.55;;;;;;;19.23;78.33;98412.84;4887877;29;20052;-79
2023/08/31 06:52:56;;;;;;;7.05;2.85;;;;;;;19.49;77.66;98412.84;4890688;29;20063;-80
2023/08/31 06:55:40;;;;;;;6.20;2.58;;;;;;;19.64;77.06;98409.34;4888998;29;20092;-80
2023/08/31 06:58:24;;;;;;;3.88;2.35;;;;;;;19.72;76.89;98408.00;4887601;29;20104;-80
2023/08/31 07:01:08;;;;;;;5.40;2.53;;;;;;;19.90;76.94;98414.59;4892683;29;20096;-80
2023/08/31 07:03:53;;;;;;;4.30;2.38;;;;;;;19.95;75.84;98416.47;4885185;29;20053;-80
2023/08/31 07:06:37;;;;;;;4.90;2.60;;;;;;;19.93;76.34;98429.28;4889502;29;20096;-80
2023/08/31 07:09:20;;;;;;;5.90;3.10;;;;;;;19.95;76.56;98422.63;4888412;29;20059;-80
2023/08/31 07:12:05;;;;;;;5.90;3.60;;;;;;;20.01;76.60;98418.06;4894358;29;20395;-81
2023/08/31 07:14:49;;;;;;;5.50;3.38;;;;;;;20.04;77.39;98414.06;4888704;29;20064;-80
2023/08/31 07:17:33;;;;;;;5.30;3.10;;;;;;;20.12;77.22;98421.47;4888199;29;20046;-80
2023/08/31 07:20:17;;;;;;;5.65;3.38;;;;;;;20.20;77.26;98417.44;4888093;29;20087;-80
2023/08/31 07:23:01;;;;;;;6.28;3.53;;;;;;;20.28;77.06;98422.22;4888528;29;20192;-80
2023/08/31 07:25:45;;;;;;;7.78;3.42;;;;;;;20.30;76.99;98420.09;4888185;29;20064;-80
2023/08/31 07:28:31;;;;;;;5.53;3.38;;;;;;;20.38;76.71;98422.16;4886961;29;20396;-80
2023/08/31 07:31:16;;;;;;;3.83;2.80;;;;;;;20.35;76.57;98414.72;4888930;29;20079;-80
2023/08/31 07:34:00;;;;;;;6.05;2.78;;;;;;;20.44;77.34;98428.28;4890730;29;20064;-80
2023/08/31 07:36:44;;;;;;;4.60;2.83;;;;;;;20.68;76.70;98433.72;4891471;29;20055;-81
2023/08/31 07:39:28;;;;;;;5.43;3.35;;;;;;;20.89;76.75;98432.81;4889989;29;20523;-81
2023/08/31 07:42:12;;;;;;;6.78;2.47;;;;;;;20.94;75.47;98430.91;4886663;29;20051;-81
2023/08/31 07:44:56;;;;;;;7.82;2.65;;;;;;;21.08;75.33;98430.28;4885475;29;20160;-81
2023/08/31 07:47:40;;;;;;;5.07;2.60;;;;;;;21.16;75.35;98435.03;4891774;29;20087;-81
2023/08/31 07:50:24;;;;;;;5.32;2.20;;;;;;;21.37;74.31;98446.34;4889856;29;20044;-80
2023/08/31 07:53:11;;;;;;;6.95;2.35;;;;;;;21.50;73.85;98442.22;4891688;29;20080;-81
2023/08/31 07:55:59;;;;;;;4.93;2.40;;;;;;;21.54;72.50;98442.44;4888584;29;20095;-81
2023/08/31 07:58:44;;;;;;;4.50;2.10;;;;;;;21.85;71.99;98450.16;4888806;29;20051;-80
2023/08/31 08:01:28;;;;;;;4.68;2.25;;;;;;;21.83;71.03;98450.47;4887125;29;20124;-82
2023/08/31 08:04:12;;;;;;;5.50;2.50;;;;;;;22.27;70.87;98434.47;4885271;29;20093;-81
2023/08/31 08:06:56;;;;;;;6.07;2.50;;;;;;;22.54;71.33;98435.72;4888253;29;20051;-81
2023/08/31 08:09:40;;;;;;;6.50;2.78;;;;;;;22.82;70.34;98433.22;4889529;29;20419;-81
2023/08/31 08:12:25;;;;;;;4.35;2.60;;;;;;;23.06;70.45;98435.75;4887277;29;20109;-81
2023/08/31 08:15:09;;;;;;;6.45;2.90;;;;;;;23.20;69.84;98433.16;4884230;29;20100;-81
2023/08/31 08:17:53;;;;;;;3.58;2.42;;;;;;;23.25;69.27;98427.75;4887158;29;20040;-80
2023/08/31 08:20:37;;;;;;;6.82;2.60;;;;;;;23.48;68.53;98427.88;4887974;29;20067;-81
2023/08/31 08:23:23;;;;;;;4.57;2.50;;;;;;;23.83;67.90;98432.88;4886391;29;20043;-81
2023/08/31 08:26:10;;;;;;;4.75;2.50;;;;;;;24.07;66.77;98430.03;4887783;29;20080;-81
2023/08/31 08:28:54;;;;;;;3.85;2.63;;;;;;;24.47;65.63;98420.63;4886001;29;20089;-80
2023/08/31 08:31:37;;;;;;;5.13;2.50;;;;;;;24.70;65.48;98428.69;4884151;29;20132;-81
2023/08/31 08:34:21;;;;;;;7.55;2.50;;;;;;;24.89;63.95;98425.88;4888026;29;20039;-81
2023/08/31 08:37:05;;;;;;;;;;;;;;;25.32;62.66;98428.06;4890311;29;20095;-81
2023/08/31 08:39:50;;;;;;;5.18;2.58;;;;;;;25.56;62.38;98434.22;4882060;29;19973;-81
2023/08/31 08:42:41;;;;;;;4.93;2.55;;;;;;;25.85;61.42;98422.13;4886522;29;20233;-81
2023/08/31 08:45:36;;;;;;;6.35;2.90;;;;;;;25.77;60.35;98421.00;4883772;29;20088;-80
2023/08/31 08:48:21;;;;;;;4.35;2.30;;;;;;;26.07;60.70;98432.78;4886408;29;20043;-81
2023/08/31 08:51:07;;;;;;;6.68;2.65;;;;;;;26.18;60.04;98424.47;4886230;29;20048;-82
2023/08/31 08:53:51;;;;;;;6.38;2.72;;;;;;;26.08;60.90;98431.69;4888094;29;20047;-81
2023/08/31 08:56:35;;;;;;;5.18;2.35;;;;;;;26.20;60.25;98433.03;4885701;29;20067;-81
2023/08/31 08:59:19;;;;;;;7.53;2.90;;;;;;;26.21;59.13;98434.59;4885248;29;20063;-81
2023/08/31 09:02:03;;;;;;;7.25;2.38;;;;;;;26.40;59.07;98430.84;4885058;29;20052;-82
2023/08/31 09:04:47;;;;;;;4.47;2.50;;;;;;;26.26;59.63;98421.00;4888486;29;20518;-81
2023/08/31 09:07:36;;;;;;;6.28;2.50;;;;;;;26.16;58.94;98421.28;4885579;29;20544;-82
2023/08/31 09:10:21;;;;;;;4.78;2.72;;;;;;;26.10;59.69;98418.72;4886829;29;20399;-81
2023/08/31 09:13:10;;;;;;;6.35;2.92;;;;;;;25.94;58.68;98425.63;4885384;29;20048;-80
2023/08/31 09:15:54;;;;;;;7.45;3.30;;;;;;;26.21;59.03;98429.22;4886453;29;20091;-82
2023/08/31 09:18:38;;;;;;;6.75;3.17;;;;;;;26.30;57.84;98421.94;4883886;29;20052;-81
2023/08/31 09:21:34;;;;;;;5.65;2.53;;;;;;;26.24;58.96;98420.53;4886154;29;20056;-81
2023/08/31 09:24:22;;;;;;;6.95;3.22;;;;;;;26.64;57.88;98433.84;4888913;29;20103;-81
2023/08/31 09:27:08;;;;;;;8.90;3.40;;;;;;;26.83;57.67;98421.97;4888922;29;20056;-82
2023/08/31 09:29:55;;;;;;;7.22;3.45;;;;;;;26.64;58.74;98414.22;4886766;29;20087;-81
2023/08/31 09:32:41;;;;;;;6.65;3.50;;;;;;;27.04;57.09;98416.75;4887286;29;20111;-81
2023/08/31 09:35:26;;;;;;;10.32;2.95;;;;;;;27.18;57.20;98418.44;4885771;29;20099;-81
2023/08/31 09:38:10;;;;;;;6.47;3.25;;;;;;;27.21;56.28;98410.53;4884860;29;20104;-81
2023/08/31 09:41:06;;;;;;;4.05;2.90;;;;;;;27.24;57.25;98409.09;4888708;29;20092;-81
2023/08/31 09:43:50;;;;;;;4.32;2.97;;;;;;;27.50;56.63;98411.69;4887517;29;20091;-82
2023/08/31 09:46:34;;;;;;;6.93;3.15;;;;;;;27.57;56.37;98415.84;4887518;29;20075;-79
2023/08/31 09:49:21;;;;;;;6.88;3.22;;;;;;;27.74;56.26;98415.75;4883185;29;20127;-81
2023/08/31 09:52:06;;;;;;;5.10;3.35;;;;;;;27.59;56.43;98419.78;4889297;29;20047;-80
2023/08/31 09:54:53;;;;;;;6.18;3.28;;;;;;;27.70;55.35;98422.91;4885004;29;20052;-79
2023/08/31 09:57:37;;;;;;;8.88;3.30;;;;;;;27.77;54.23;98414.31;4885613;29;20106;-80
2023/08/31 10:00:22;;;;;;;9.48;3.10;;;;;;;27.61;54.88;98414.06;4887141;29;20036;-80
2023/08/31 10:03:08;;;;;;;4.63;2.70;;;;;;;27.78;54.16;98405.91;4887683;29;20114;-80
2023/08/31 10:05:55;;;;;;;6.20;2.80;;;;;;;27.83;54.16;98409.53;4888638;29;20391;-80
2023/08/31 10:08:40;;;;;;;5.18;2.50;;;;;;;27.83;53.87;98404.13;4890563;29;20040;-80
2023/08/31 10:11:25;;;;;;;6.95;2.60;;;;;;;28.01;53.29;98410.25;4887361;29;20056;-81
2023/08/31 10:14:10;;;;;;;3.40;2.30;;;;;;;27.87;51.92;98402.38;4888750;29;20056;-81
2023/08/31 10:16:57;;;;;;;3.88;2.33;;;;;;;28.08;52.43;98411.28;4885906;29;20052;-79
2023/08/31 10:19:42;;;;;;;4.70;2.40;;;;;;;28.13;51.53;98404.13;4892515;29;20076;-82
2023/08/31 10:22:26;;;;;;;3.60;2.10;;;;;;;27.96;51.08;98397.72;4890692;29;20051;-79
2023/08/31 10:25:11;;;;;;;6.07;2.35;;;;;;;27.69;51.69;98397.06;4890827;29;20083;-80
2023/08/31 10:27:56;;;;;;;4.13;2.22;;;;;;;27.44;51.43;98396.81;4888155;29;20154;-82
2023/08/31 10:30:39;;;;;;;4.10;2.58;;;;;;;26.98;51.19;98396.47;4889845;29;20040;-80
2023/08/31 10:33:23;;;;;;;2.90;2.15;;;;;;;26.76;52.38;98392.06;4890230;29;20047;-80
2023/08/31 10:36:16;;;;;;;4.55;2.08;;;;;;;27.00;52.30;98393.47;4889357;29;20112;-80
2023/08/31 10:39:04;;;;;;;4.70;2.38;;;;;;;26.70;52.63;98396.81;4889418;29;20419;-82
2023/08/31 10:41:54;;;;;;;6.78;2.38;;;;;;;26.32;52.22;98387.44;4889626;29;20036;-79
2023/08/31 10:44:42;;;;;;;3.20;2.20;;;;;;;26.35;51.95;98378.78;4889237;29;20060;-79
2023/08/31 10:47:38;;;;;;;3.72;2.30;;;;;;;26.46;51.69;98378.44;4888989;29;20043;-82
2023/08/31 10:50:23;;;;;;;3.88;1.83;;;;;;;26.30;52.07;98384.28;4888885;29;20045;-82
2023/08/31 10:53:09;;;;;;;3.08;2.30;;;;;;;26.56;52.60;98378.13;4886106;29;20048;-82
2023/08/31 10:55:53;;;;;;;2.95;2.40;;;;;;;26.58;53.09;98377.81;4886861;29;20483;-82
2023/08/31 10:58:38;;;;;;;3.90;2.53;;;;;;;26.52;52.06;98369.91;4888563;29;20111;-81
2023/08/31 11:02:01;;;;;;;2.78;2.38;;;;;;;26.77;52.13;98372.88;4890955;29;20089;-81
2023/08/31 11:04:54;;;;;;;6.73;2.60;;;;;;;26.90;52.16;98367.66;4890383;29;20047;-81
2023/08/31 11:07:40;;;;;;;5.60;3.40;;;;;;;26.88;51.94;98365.28;4889704;29;20108;-82
2023/08/31 11:10:29;;;;;;;3.78;2.30;;;;;;;26.84;51.32;98372.41;4888830;29;20418;-82
2023/08/31 11:13:19;;;;;;;4.20;2.80;;;;;;;26.79;51.53;98369.88;4891525;29;20052;-82
2023/08/31 11:16:04;;;;;;;3.60;2.47;;;;;;;26.53;52.35;98381.47;4889137;29;20055;-82
2023/08/31 11:18:48;;;;;;;3.42;2.45;;;;;;;26.43;51.79;98376.38;4886022;29;20044;-81
2023/08/31 11:21:32;;;;;;;4.18;1.98;;;;;;;26.57;51.61;98368.94;4889248;29;20092;-81
2023/08/31 11:24:17;;;;;;;3.40;2.42;;;;;;;26.53;53.49;98376.09;4888614;29;20444;-81
2023/08/31 11:27:04;;;;;;;3.55;2.50;;;;;;;26.99;52.42;98375.72;4888616;29;20116;-81
2023/08/31 11:29:48;;;;;;;4.38;2.72;;;;;;;27.33;52.36;98376.75;4886489;29;20105;-81
2023/08/31 11:32:32;;;;;;;4.40;2.60;;;;;;;27.37;51.80;98369.59;4886092;29;20044;-81
2023/08/31 11:35:17;;;;;;;4.85;2.90;;;;;;;27.09;51.66;98364.59;4884435;29;20040;-81
2023/08/31 11:38:01;;;;;;;5.93;2.70;;;;;;;27.25;51.47;98364.88;4885024;29;20140;-81
2023/08/31 11:40:45;;;;;;;5.20;2.25;;;;;;;27.33;49.66;98364.06;4889205;29;20399;-81
2023/08/31 11:43:30;;;;;;;4.80;2.15;;;;;;;27.69;49.43;98363.94;4888477;29;20047;-81
2023/08/31 11:46:15;;;;;;;2.35;2.13;;;;;;;27.78;47.14;98353.88;4884881;29;20144;-81
2023/08/31 11:49:00;;;;;;;2.53;2.00;;;;;;;28.01;48.92;98350.91;4888992;29;20047;-81
2023/08/31 11:51:45;;;;;;;4.72;2.20;;;;;;;28.22;46.67;98353.63;4886380;29;20096;-81
2023/08/31 11:54:29;;;;;;;2.83;2.00;;;;;;;28.12;47.31;98343.22;4886908;29;20466;-82
2023/08/31 11:57:14;;;;;;;4.20;2.50;;;;;;;28.01;47.25;98354.38;4886474;29;20101;-81
2023/08/31 11:59:58;;;;;;;5.50;2.45;;;;;;;28.01;47.63;98357.06;4883987;29;20096;-81
2023/08/31 12:02:42;;;;;;;3.53;2.30;;;;;;;27.44;48.13;98353.69;4885344;29;20104;-82
2023/08/31 12:05:27;;;;;;;3.42;2.75;;;;;;;27.87;49.30;98356.53;4888913;29;20051;-81
2023/08/31 12:08:11;;;;;;;6.32;2.33;;;;;;;28.25;49.45;98355.66;4886008;29;20040;-82
2023/08/31 12:10:56;;;;;;;3.60;2.58;;;;;;;28.17;49.21;98345.72;4891189;29;20100;-82
2023/08/31 12:13:40;;;;;;;6.03;2.50;;;;;;;28.07;47.98;98341.50;4884191;29;20112;-81
2023/08/31 12:16:24;;;;;;;3.63;2.40;;;;;;;28.06;47.73;98350.69;4886652;29;20101;-82
2023/08/31 12:19:09;;;;;;;2.90;2.28;;;;;;;28.28;49.56;98357.69;4888108;29;20051;-82
2023/08/31 12:21:54;;;;;;;2.83;2.00;;;;;;;28.58;46.74;98354.09;4888160;29;20186;-82
2023/08/31 12:24:42;;;;;;;2.30;2.03;;;;;;;28.67;46.53;98362.13;4887462;29;20503;-82
2023/08/31 12:27:26;;;;;;;2.30;2.10;;;;;;;28.65;46.03;98357.84;4887399;29;20459;-81
2023/08/31 12:30:10;;;;;;;4.72;2.33;;;;;;;28.32;45.13;98364.03;4883744;29;20048;-81
2023/08/31 12:32:54;;;;;;;2.63;2.33;;;;;;;28.42;44.02;98356.63;4887440;29;20073;-80
2023/08/31 12:35:39;;;;;;;2.55;2.25;;;;;;;28.12;45.68;98354.78;4891636;29;20120;-81
2023/08/31 12:38:24;;;;;;;4.68;2.40;;;;;;;27.82;47.47;98357.53;4889931;29;20048;-81
2023/08/31 12:41:08;;;;;;;2.80;2.33;;;;;;;27.64;47.32;98354.13;4889363;29;20502;-80
2023/08/31 12:43:53;;;;;;;3.08;2.38;;;;;;;27.50;47.10;98347.00;4885908;29;20075;-80
2023/08/31 12:46:37;;;;;;;5.78;2.83;;;;;;;27.74;46.21;98336.78;4886942;29;20547;-80
2023/08/31 12:49:22;;;;;;;4.93;2.38;;;;;;;27.68;47.94;98346.19;4887750;29;20095;-82
2023/08/31 12:52:07;;;;;;;4.03;2.05;;;;;;;27.35;47.31;98342.19;4886332;29;20172;-80
2023/08/31 12:54:51;;;;;;;4.50;2.65;;;;;;;27.45;47.28;98355.28;4885930;29;20052;-81
2023/08/31 12:57:35;;;;;;;3.85;2.38;;;;;;;27.54;46.20;98346.41;4884353;29;20079;-80